Terminal Aerodrome Forecast
Issued by NWS Binghamton, NY

Home | Current Version | Previous Version | Text Only | Print | Product List | Glossary On
Versions: 1 2 3 4 5 6 7 8 9 10 11 12 13 14 15 16 17 18 19 20 21 22 23 24 25
000
FTUS41 KBGM 031100
TAFBGM
TAF
KBGM 031130Z 0312/0412 21006KT P6SM OVC120
     FM031800 17010KT 2SM -SN OVC015
     FM032200 18012G20KT 3SM -PL OVC015
     FM040200 19012G20KT 4SM -FZRA OVC015
     FM040900 24009KT P6SM -RASN OVC015=

USA.gov is the U.S. government's official web portal to all federal, state and local government web resources and services.